sensor_id;sensor_type;location;lat;lon;timestamp;temperature;humidity
18091;DHT22;9172;49.948;9.208;2023-08-12T00:01:22;20.10;99.90
18091;DHT22;9172;49.948;9.208;2023-08-12T00:03:53;20.10;99.90
18091;DHT22;9172;49.948;9.208;2023-08-12T00:06:22;20.10;99.90
18091;DHT22;9172;49.948;9.208;2023-08-12T00:08:51;20.10;99.90
18091;DHT22;9172;49.948;9.208;2023-08-12T00:11:20;20.10;99.90
18091;DHT22;9172;49.948;9.208;2023-08-12T00:13:50;20.10;99.90
18091;DHT22;9172;49.948;9.208;2023-08-12T00:16:19;20.10;99.90
18091;DHT22;9172;49.948;9.208;2023-08-12T00:18:48;20.10;99.90
18091;DHT22;9172;49.948;9.208;2023-08-12T00:21:16;20.10;99.90
18091;DHT22;9172;49.948;9.208;2023-08-12T00:23:45;20.10;99.90
18091;DHT22;9172;49.948;9.208;2023-08-12T00:26:15;20.10;99.90
18091;DHT22;9172;49.948;9.208;2023-08-12T00:28:43;20.00;99.90
18091;DHT22;9172;49.948;9.208;2023-08-12T00:31:13;20.00;99.90
18091;DHT22;9172;49.948;9.208;2023-08-12T00:33:42;20.00;99.90
18091;DHT22;9172;49.948;9.208;2023-08-12T00:36:10;20.10;99.90
18091;DHT22;9172;49.948;9.208;2023-08-12T00:38:39;20.00;99.90
18091;DHT22;9172;49.948;9.208;2023-08-12T00:41:07;20.00;99.90
18091;DHT22;9172;49.948;9.208;2023-08-12T00:43:36;20.00;99.90
18091;DHT22;9172;49.948;9.208;2023-08-12T00:46:06;20.00;99.90
18091;DHT22;9172;49.948;9.208;2023-08-12T00:48:35;20.00;99.90
18091;DHT22;9172;49.948;9.208;2023-08-12T00:51:04;19.90;99.90
18091;DHT22;9172;49.948;9.208;2023-08-12T00:53:33;19.90;99.90
18091;DHT22;9172;49.948;9.208;2023-08-12T00:56:02;20.00;99.90
18091;DHT22;9172;49.948;9.208;2023-08-12T00:58:31;20.00;99.90
18091;DHT22;9172;49.948;9.208;2023-08-12T01:01:01;20.00;99.90
18091;DHT22;9172;49.948;9.208;2023-08-12T01:03:30;20.00;99.90
18091;DHT22;9172;49.948;9.208;2023-08-12T01:08:49;19.90;99.90
18091;DHT22;9172;49.948;9.208;2023-08-12T01:11:20;19.90;99.90
18091;DHT22;9172;49.948;9.208;2023-08-12T01:13:53;19.90;99.90
18091;DHT22;9172;49.948;9.208;2023-08-12T01:16:24;19.90;99.90
18091;DHT22;9172;49.948;9.208;2023-08-12T01:18:54;19.90;99.90
18091;DHT22;9172;49.948;9.208;2023-08-12T01:21:25;19.90;99.90
18091;DHT22;9172;49.948;9.208;2023-08-12T01:23:56;19.90;99.90
18091;DHT22;9172;49.948;9.208;2023-08-12T01:26:27;19.90;99.90
18091;DHT22;9172;49.948;9.208;2023-08-12T01:28:55;19.90;99.90
18091;DHT22;9172;49.948;9.208;2023-08-12T01:31:27;19.90;99.90
18091;DHT22;9172;49.948;9.208;2023-08-12T01:34:12;19.90;99.90
18091;DHT22;9172;49.948;9.208;2023-08-12T01:36:31;19.90;99.90
18091;DHT22;9172;49.948;9.208;2023-08-12T01:39:01;19.80;99.90
18091;DHT22;9172;49.948;9.208;2023-08-12T01:41:30;19.80;99.90
18091;DHT22;9172;49.948;9.208;2023-08-12T01:43:59;19.80;99.90
18091;DHT22;9172;49.948;9.208;2023-08-12T01:46:27;19.90;99.90
18091;DHT22;9172;49.948;9.208;2023-08-12T01:48:58;19.90;99.90
18091;DHT22;9172;49.948;9.208;2023-08-12T01:51:26;19.90;99.90
18091;DHT22;9172;49.948;9.208;2023-08-12T01:53:55;19.90;99.90
18091;DHT22;9172;49.948;9.208;2023-08-12T01:56:23;19.90;99.90
18091;DHT22;9172;49.948;9.208;2023-08-12T01:58:52;19.90;99.90
18091;DHT22;9172;49.948;9.208;2023-08-12T02:01:20;19.90;99.90
18091;DHT22;9172;49.948;9.208;2023-08-12T02:03:49;19.90;99.90
18091;DHT22;9172;49.948;9.208;2023-08-12T02:06:17;19.90;99.90
18091;DHT22;9172;49.948;9.208;2023-08-12T02:08:47;20.00;99.90
18091;DHT22;9172;49.948;9.208;2023-08-12T02:11:15;20.00;99.90
18091;DHT22;9172;49.948;9.208;2023-08-12T02:13:45;20.10;99.90
18091;DHT22;9172;49.948;9.208;2023-08-12T02:16:14;20.10;99.90
18091;DHT22;9172;49.948;9.208;2023-08-12T02:18:43;20.10;99.90
18091;DHT22;9172;49.948;9.208;2023-08-12T02:21:11;20.10;99.90
18091;DHT22;9172;49.948;9.208;2023-08-12T02:23:42;20.10;99.90
18091;DHT22;9172;49.948;9.208;2023-08-12T02:26:11;20.20;99.90
18091;DHT22;9172;49.948;9.208;2023-08-12T02:28:40;20.20;99.90
18091;DHT22;9172;49.948;9.208;2023-08-12T02:31:10;20.10;99.90
18091;DHT22;9172;49.948;9.208;2023-08-12T02:33:39;20.00;99.90
18091;DHT22;9172;49.948;9.208;2023-08-12T02:36:08;20.00;99.90
18091;DHT22;9172;49.948;9.208;2023-08-12T02:38:36;19.90;99.90
18091;DHT22;9172;49.948;9.208;2023-08-12T02:41:07;19.90;99.90
18091;DHT22;9172;49.948;9.208;2023-08-12T02:43:35;19.90;99.90
18091;DHT22;9172;49.948;9.208;2023-08-12T02:46:04;19.90;99.90
18091;DHT22;9172;49.948;9.208;2023-08-12T02:48:34;19.80;99.90
18091;DHT22;9172;49.948;9.208;2023-08-12T02:51:03;19.80;99.90
18091;DHT22;9172;49.948;9.208;2023-08-12T02:53:32;19.70;99.90
18091;DHT22;9172;49.948;9.208;2023-08-12T02:56:01;19.70;99.90
18091;DHT22;9172;49.948;9.208;2023-08-12T02:58:30;19.70;99.90
18091;DHT22;9172;49.948;9.208;2023-08-12T03:00:58;19.60;99.90
18091;DHT22;9172;49.948;9.208;2023-08-12T03:03:27;19.70;99.90
18091;DHT22;9172;49.948;9.208;2023-08-12T03:05:56;19.70;99.90
18091;DHT22;9172;49.948;9.208;2023-08-12T03:08:25;19.70;99.90
18091;DHT22;9172;49.948;9.208;2023-08-12T03:10:59;19.70;99.90
18091;DHT22;9172;49.948;9.208;2023-08-12T03:13:28;19.70;99.90
18091;DHT22;9172;49.948;9.208;2023-08-12T03:15:57;19.70;99.90
18091;DHT22;9172;49.948;9.208;2023-08-12T03:18:26;19.70;99.90
18091;DHT22;9172;49.948;9.208;2023-08-12T03:20:54;19.70;99.90
18091;DHT22;9172;49.948;9.208;2023-08-12T03:23:23;19.70;99.90
18091;DHT22;9172;49.948;9.208;2023-08-12T03:25:53;19.70;99.90
18091;DHT22;9172;49.948;9.208;2023-08-12T03:28:23;19.70;99.90
18091;DHT22;9172;49.948;9.208;2023-08-12T03:30:52;19.70;99.90
18091;DHT22;9172;49.948;9.208;2023-08-12T03:33:21;19.70;99.90
18091;DHT22;9172;49.948;9.208;2023-08-12T03:35:49;19.70;99.90
18091;DHT22;9172;49.948;9.208;2023-08-12T03:38:19;19.70;99.90
18091;DHT22;9172;49.948;9.208;2023-08-12T03:40:48;19.70;99.90
18091;DHT22;9172;49.948;9.208;2023-08-12T03:43:19;19.60;99.90
18091;DHT22;9172;49.948;9.208;2023-08-12T03:45:48;19.50;99.90
18091;DHT22;9172;49.948;9.208;2023-08-12T03:48:17;19.50;99.90
18091;DHT22;9172;49.948;9.208;2023-08-12T03:50:47;19.40;99.90
18091;DHT22;9172;49.948;9.208;2023-08-12T03:53:15;19.30;99.90
18091;DHT22;9172;49.948;9.208;2023-08-12T03:55:44;19.20;99.90
18091;DHT22;9172;49.948;9.208;2023-08-12T03:58:14;19.30;99.90
18091;DHT22;9172;49.948;9.208;2023-08-12T04:00:42;19.30;99.90
18091;DHT22;9172;49.948;9.208;2023-08-12T04:03:11;19.30;99.90
18091;DHT22;9172;49.948;9.208;2023-08-12T04:05:47;19.30;99.90
18091;DHT22;9172;49.948;9.208;2023-08-12T04:08:16;19.20;99.90
18091;DHT22;9172;49.948;9.208;2023-08-12T04:10:46;19.30;99.90
18091;DHT22;9172;49.948;9.208;2023-08-12T04:13:15;19.20;99.90
18091;DHT22;9172;49.948;9.208;2023-08-12T04:15:48;19.30;99.90
18091;DHT22;9172;49.948;9.208;2023-08-12T04:18:17;19.30;99.90
18091;DHT22;9172;49.948;9.208;2023-08-12T04:20:47;19.40;99.90
18091;DHT22;9172;49.948;9.208;2023-08-12T04:23:16;19.40;99.90
18091;DHT22;9172;49.948;9.208;2023-08-12T04:25:45;19.40;99.90
18091;DHT22;9172;49.948;9.208;2023-08-12T04:28:15;19.30;99.90
18091;DHT22;9172;49.948;9.208;2023-08-12T04:30:44;19.40;99.90
18091;DHT22;9172;49.948;9.208;2023-08-12T04:33:13;19.40;99.90
18091;DHT22;9172;49.948;9.208;2023-08-12T04:35:44;19.40;99.90
18091;DHT22;9172;49.948;9.208;2023-08-12T04:38:14;19.40;99.90
18091;DHT22;9172;49.948;9.208;2023-08-12T04:40:43;19.40;99.90
18091;DHT22;9172;49.948;9.208;2023-08-12T04:43:12;19.40;99.90
18091;DHT22;9172;49.948;9.208;2023-08-12T04:45:44;19.50;99.90
18091;DHT22;9172;49.948;9.208;2023-08-12T04:48:10;19.50;99.90
18091;DHT22;9172;49.948;9.208;2023-08-12T04:50:39;19.60;99.90
18091;DHT22;9172;49.948;9.208;2023-08-12T04:53:08;19.60;99.90
18091;DHT22;9172;49.948;9.208;2023-08-12T04:55:37;19.50;99.90
18091;DHT22;9172;49.948;9.208;2023-08-12T04:58:06;19.50;99.90
18091;DHT22;9172;49.948;9.208;2023-08-12T05:00:35;19.40;99.90
18091;DHT22;9172;49.948;9.208;2023-08-12T05:03:05;19.50;99.90
18091;DHT22;9172;49.948;9.208;2023-08-12T05:05:34;19.50;99.90
18091;DHT22;9172;49.948;9.208;2023-08-12T05:08:03;19.50;99.90
18091;DHT22;9172;49.948;9.208;2023-08-12T05:10:32;19.50;99.90
18091;DHT22;9172;49.948;9.208;2023-08-12T05:13:02;19.50;99.90
18091;DHT22;9172;49.948;9.208;2023-08-12T05:15:31;19.50;99.90
18091;DHT22;9172;49.948;9.208;2023-08-12T05:18:01;19.50;99.90
18091;DHT22;9172;49.948;9.208;2023-08-12T05:20:29;19.50;99.90
18091;DHT22;9172;49.948;9.208;2023-08-12T05:22:58;19.50;99.90
18091;DHT22;9172;49.948;9.208;2023-08-12T05:25:26;19.50;99.90
18091;DHT22;9172;49.948;9.208;2023-08-12T05:27:57;19.50;99.90
18091;DHT22;9172;49.948;9.208;2023-08-12T05:30:25;19.50;99.90
18091;DHT22;9172;49.948;9.208;2023-08-12T05:32:55;19.50;99.90
18091;DHT22;9172;49.948;9.208;2023-08-12T05:35:24;19.50;99.90
18091;DHT22;9172;49.948;9.208;2023-08-12T05:37:53;19.50;99.90
18091;DHT22;9172;49.948;9.208;2023-08-12T05:40:21;19.50;99.90
18091;DHT22;9172;49.948;9.208;2023-08-12T05:42:51;19.60;99.90
18091;DHT22;9172;49.948;9.208;2023-08-12T05:45:21;19.60;99.90
18091;DHT22;9172;49.948;9.208;2023-08-12T05:47:51;19.70;99.90
18091;DHT22;9172;49.948;9.208;2023-08-12T05:50:20;19.70;99.90
18091;DHT22;9172;49.948;9.208;2023-08-12T05:52:50;19.70;99.90
18091;DHT22;9172;49.948;9.208;2023-08-12T05:55:18;19.70;99.90
18091;DHT22;9172;49.948;9.208;2023-08-12T05:57:46;19.70;99.90
18091;DHT22;9172;49.948;9.208;2023-08-12T06:00:15;19.80;99.90
18091;DHT22;9172;49.948;9.208;2023-08-12T06:02:44;19.80;99.90
18091;DHT22;9172;49.948;9.208;2023-08-12T06:05:12;19.90;99.90
18091;DHT22;9172;49.948;9.208;2023-08-12T06:07:41;19.90;99.90
18091;DHT22;9172;49.948;9.208;2023-08-12T06:10:11;20.00;99.90
18091;DHT22;9172;49.948;9.208;2023-08-12T06:12:39;20.00;99.90
18091;DHT22;9172;49.948;9.208;2023-08-12T06:15:09;20.10;99.90
18091;DHT22;9172;49.948;9.208;2023-08-12T06:17:38;20.10;99.90
18091;DHT22;9172;49.948;9.208;2023-08-12T06:20:09;20.20;99.90
18091;DHT22;9172;49.948;9.208;2023-08-12T06:22:38;20.20;99.90
18091;DHT22;9172;49.948;9.208;2023-08-12T06:25:07;20.20;99.90
18091;DHT22;9172;49.948;9.208;2023-08-12T06:27:36;20.30;99.90
18091;DHT22;9172;49.948;9.208;2023-08-12T06:30:07;20.30;99.90
18091;DHT22;9172;49.948;9.208;2023-08-12T06:32:36;20.40;99.90
18091;DHT22;9172;49.948;9.208;2023-08-12T06:35:05;20.50;99.90
18091;DHT22;9172;49.948;9.208;2023-08-12T06:37:34;20.50;99.90
18091;DHT22;9172;49.948;9.208;2023-08-12T06:40:08;20.50;99.90
18091;DHT22;9172;49.948;9.208;2023-08-12T06:42:36;20.50;99.90
18091;DHT22;9172;49.948;9.208;2023-08-12T06:45:08;20.60;99.90
18091;DHT22;9172;49.948;9.208;2023-08-12T06:47:36;20.70;99.90
18091;DHT22;9172;49.948;9.208;2023-08-12T06:50:06;20.80;99.90
18091;DHT22;9172;49.948;9.208;2023-08-12T06:52:35;20.90;99.90
18091;DHT22;9172;49.948;9.208;2023-08-12T06:55:05;21.10;99.90
18091;DHT22;9172;49.948;9.208;2023-08-12T06:57:34;21.10;99.90
18091;DHT22;9172;49.948;9.208;2023-08-12T07:00:03;21.20;99.90
18091;DHT22;9172;49.948;9.208;2023-08-12T07:02:32;21.30;99.90
18091;DHT22;9172;49.948;9.208;2023-08-12T07:05:01;21.40;99.90
18091;DHT22;9172;49.948;9.208;2023-08-12T07:07:30;21.60;99.90
18091;DHT22;9172;49.948;9.208;2023-08-12T07:09:59;21.70;99.90
18091;DHT22;9172;49.948;9.208;2023-08-12T07:12:28;21.90;99.90
18091;DHT22;9172;49.948;9.208;2023-08-12T07:14:57;21.90;99.90
18091;DHT22;9172;49.948;9.208;2023-08-12T07:17:27;22.00;99.90
18091;DHT22;9172;49.948;9.208;2023-08-12T07:19:56;22.00;99.90
18091;DHT22;9172;49.948;9.208;2023-08-12T07:22:25;22.10;99.90
18091;DHT22;9172;49.948;9.208;2023-08-12T07:24:53;22.10;99.90
18091;DHT22;9172;49.948;9.208;2023-08-12T07:27:23;22.10;99.90
18091;DHT22;9172;49.948;9.208;2023-08-12T07:29:52;22.20;99.90
18091;DHT22;9172;49.948;9.208;2023-08-12T07:32:21;22.20;99.90
18091;DHT22;9172;49.948;9.208;2023-08-12T07:34:50;22.30;99.90
18091;DHT22;9172;49.948;9.208;2023-08-12T07:37:18;22.30;99.90
18091;DHT22;9172;49.948;9.208;2023-08-12T07:39:48;22.40;99.90
18091;DHT22;9172;49.948;9.208;2023-08-12T07:42:18;22.50;99.90
18091;DHT22;9172;49.948;9.208;2023-08-12T07:44:47;22.60;99.90
18091;DHT22;9172;49.948;9.208;2023-08-12T07:47:16;22.70;99.90
18091;DHT22;9172;49.948;9.208;2023-08-12T07:49:45;22.90;99.90
18091;DHT22;9172;49.948;9.208;2023-08-12T07:52:15;23.00;99.90
18091;DHT22;9172;49.948;9.208;2023-08-12T07:54:45;23.30;99.90
18091;DHT22;9172;49.948;9.208;2023-08-12T07:57:14;23.50;99.90
18091;DHT22;9172;49.948;9.208;2023-08-12T07:59:44;23.60;99.90
18091;DHT22;9172;49.948;9.208;2023-08-12T08:02:12;23.70;99.90
18091;DHT22;9172;49.948;9.208;2023-08-12T08:04:41;23.80;99.90
18091;DHT22;9172;49.948;9.208;2023-08-12T08:07:11;23.90;99.90
18091;DHT22;9172;49.948;9.208;2023-08-12T08:09:40;23.90;99.90
18091;DHT22;9172;49.948;9.208;2023-08-12T08:12:09;23.90;99.90
18091;DHT22;9172;49.948;9.208;2023-08-12T08:14:38;23.90;99.90
18091;DHT22;9172;49.948;9.208;2023-08-12T08:17:08;23.80;99.90
18091;DHT22;9172;49.948;9.208;2023-08-12T08:19:37;23.80;99.90
18091;DHT22;9172;49.948;9.208;2023-08-12T08:22:06;23.80;99.90
18091;DHT22;9172;49.948;9.208;2023-08-12T08:24:35;23.80;99.90
18091;DHT22;9172;49.948;9.208;2023-08-12T08:27:05;23.80;99.90
18091;DHT22;9172;49.948;9.208;2023-08-12T08:29:34;23.90;99.90
18091;DHT22;9172;49.948;9.208;2023-08-12T08:32:03;23.90;99.90
18091;DHT22;9172;49.948;9.208;2023-08-12T08:34:31;23.80;99.90
18091;DHT22;9172;49.948;9.208;2023-08-12T08:37:00;23.80;99.90
18091;DHT22;9172;49.948;9.208;2023-08-12T08:39:28;23.80;99.90
18091;DHT22;9172;49.948;9.208;2023-08-12T08:41:58;23.70;99.90
18091;DHT22;9172;49.948;9.208;2023-08-12T08:44:28;23.70;99.90
18091;DHT22;9172;49.948;9.208;2023-08-12T08:46:59;23.70;99.90
18091;DHT22;9172;49.948;9.208;2023-08-12T08:49:29;23.70;99.90
18091;DHT22;9172;49.948;9.208;2023-08-12T08:52:00;23.70;99.90
18091;DHT22;9172;49.948;9.208;2023-08-12T08:54:29;23.80;99.90
18091;DHT22;9172;49.948;9.208;2023-08-12T08:56:58;23.80;99.90
18091;DHT22;9172;49.948;9.208;2023-08-12T08:59:27;23.70;99.90
18091;DHT22;9172;49.948;9.208;2023-08-12T09:01:57;23.70;99.90
18091;DHT22;9172;49.948;9.208;2023-08-12T09:04:27;23.70;99.90
18091;DHT22;9172;49.948;9.208;2023-08-12T09:07:00;23.80;99.90
18091;DHT22;9172;49.948;9.208;2023-08-12T09:09:30;23.90;99.90
18091;DHT22;9172;49.948;9.208;2023-08-12T09:11:59;24.00;99.90
18091;DHT22;9172;49.948;9.208;2023-08-12T09:14:29;24.00;99.90
18091;DHT22;9172;49.948;9.208;2023-08-12T09:16:58;24.10;99.90
18091;DHT22;9172;49.948;9.208;2023-08-12T09:19:27;24.10;99.90
18091;DHT22;9172;49.948;9.208;2023-08-12T09:21:56;24.10;99.90
18091;DHT22;9172;49.948;9.208;2023-08-12T09:24:26;24.10;99.90
18091;DHT22;9172;49.948;9.208;2023-08-12T09:26:55;24.20;99.90
18091;DHT22;9172;49.948;9.208;2023-08-12T09:29:25;24.20;99.90
18091;DHT22;9172;49.948;9.208;2023-08-12T09:31:54;24.30;99.90
18091;DHT22;9172;49.948;9.208;2023-08-12T09:34:24;24.30;99.90
18091;DHT22;9172;49.948;9.208;2023-08-12T09:36:53;24.30;99.90
18091;DHT22;9172;49.948;9.208;2023-08-12T09:39:22;24.40;99.90
18091;DHT22;9172;49.948;9.208;2023-08-12T09:41:52;24.40;99.90
18091;DHT22;9172;49.948;9.208;2023-08-12T09:44:21;24.50;99.90
18091;DHT22;9172;49.948;9.208;2023-08-12T09:46:56;24.60;99.90
18091;DHT22;9172;49.948;9.208;2023-08-12T09:49:26;24.60;99.90
18091;DHT22;9172;49.948;9.208;2023-08-12T09:51:56;24.70;99.90
18091;DHT22;9172;49.948;9.208;2023-08-12T09:54:27;24.80;99.90
18091;DHT22;9172;49.948;9.208;2023-08-12T09:56:57;24.80;99.90
18091;DHT22;9172;49.948;9.208;2023-08-12T09:59:30;24.90;99.90
18091;DHT22;9172;49.948;9.208;2023-08-12T10:01:59;24.90;99.90
18091;DHT22;9172;49.948;9.208;2023-08-12T10:04:33;24.90;99.90
18091;DHT22;9172;49.948;9.208;2023-08-12T10:07:03;25.00;99.90
18091;DHT22;9172;49.948;9.208;2023-08-12T10:09:34;25.10;99.90
18091;DHT22;9172;49.948;9.208;2023-08-12T10:12:06;25.20;99.90
18091;DHT22;9172;49.948;9.208;2023-08-12T10:14:36;25.30;99.90
18091;DHT22;9172;49.948;9.208;2023-08-12T10:17:07;25.20;99.90
18091;DHT22;9172;49.948;9.208;2023-08-12T10:19:37;25.30;99.90
18091;DHT22;9172;49.948;9.208;2023-08-12T10:22:07;25.30;99.90
18091;DHT22;9172;49.948;9.208;2023-08-12T10:24:35;25.40;99.90
18091;DHT22;9172;49.948;9.208;2023-08-12T10:27:06;25.40;99.90
18091;DHT22;9172;49.948;9.208;2023-08-12T10:29:35;25.40;99.90
18091;DHT22;9172;49.948;9.208;2023-08-12T10:32:04;25.40;99.90
18091;DHT22;9172;49.948;9.208;2023-08-12T10:34:34;25.40;99.90
18091;DHT22;9172;49.948;9.208;2023-08-12T10:37:03;25.40;99.90
18091;DHT22;9172;49.948;9.208;2023-08-12T10:39:33;25.50;99.90
18091;DHT22;9172;49.948;9.208;2023-08-12T10:42:02;25.50;99.90
18091;DHT22;9172;49.948;9.208;2023-08-12T10:44:40;25.40;99.90
18091;DHT22;9172;49.948;9.208;2023-08-12T10:47:11;25.30;99.90
18091;DHT22;9172;49.948;9.208;2023-08-12T10:49:42;25.20;99.90
18091;DHT22;9172;49.948;9.208;2023-08-12T10:52:26;25.20;99.90
18091;DHT22;9172;49.948;9.208;2023-08-12T10:55:04;25.10;99.90
18091;DHT22;9172;49.948;9.208;2023-08-12T10:57:37;25.00;99.90
18091;DHT22;9172;49.948;9.208;2023-08-12T11:00:11;24.90;99.90
18091;DHT22;9172;49.948;9.208;2023-08-12T11:02:46;24.80;99.90
18091;DHT22;9172;49.948;9.208;2023-08-12T11:05:17;24.60;99.90
18091;DHT22;9172;49.948;9.208;2023-08-12T11:07:47;24.50;99.90
18091;DHT22;9172;49.948;9.208;2023-08-12T11:10:18;24.30;99.90
18091;DHT22;9172;49.948;9.208;2023-08-12T11:12:55;24.20;99.90
18091;DHT22;9172;49.948;9.208;2023-08-12T11:15:28;23.60;99.90
18091;DHT22;9172;49.948;9.208;2023-08-12T11:17:50;23.00;99.90
18091;DHT22;9172;49.948;9.208;2023-08-12T11:20:19;22.50;99.90
18091;DHT22;9172;49.948;9.208;2023-08-12T11:22:48;22.20;99.90
18091;DHT22;9172;49.948;9.208;2023-08-12T11:25:17;22.00;99.90
18091;DHT22;9172;49.948;9.208;2023-08-12T11:27:47;21.90;99.90
18091;DHT22;9172;49.948;9.208;2023-08-12T11:30:17;21.90;99.90
18091;DHT22;9172;49.948;9.208;2023-08-12T11:32:47;21.90;99.90
18091;DHT22;9172;49.948;9.208;2023-08-12T11:35:18;21.90;99.90
18091;DHT22;9172;49.948;9.208;2023-08-12T11:37:48;21.60;99.90
18091;DHT22;9172;49.948;9.208;2023-08-12T11:40:18;21.60;99.90
18091;DHT22;9172;49.948;9.208;2023-08-12T11:42:48;21.60;99.90
18091;DHT22;9172;49.948;9.208;2023-08-12T11:45:18;21.70;99.90
18091;DHT22;9172;49.948;9.208;2023-08-12T11:47:47;21.60;99.90
18091;DHT22;9172;49.948;9.208;2023-08-12T11:50:21;21.60;99.90
18091;DHT22;9172;49.948;9.208;2023-08-12T11:52:52;21.70;99.90
18091;DHT22;9172;49.948;9.208;2023-08-12T11:55:21;21.70;99.90
18091;DHT22;9172;49.948;9.208;2023-08-12T11:57:51;21.70;99.90
18091;DHT22;9172;49.948;9.208;2023-08-12T12:00:20;21.60;99.90
18091;DHT22;9172;49.948;9.208;2023-08-12T12:02:50;21.60;99.90
18091;DHT22;9172;49.948;9.208;2023-08-12T12:05:21;21.50;99.90
18091;DHT22;9172;49.948;9.208;2023-08-12T12:07:49;21.40;99.90
18091;DHT22;9172;49.948;9.208;2023-08-12T12:10:20;21.40;99.90
18091;DHT22;9172;49.948;9.208;2023-08-12T12:12:49;21.40;99.90
18091;DHT22;9172;49.948;9.208;2023-08-12T12:15:19;21.40;99.90
18091;DHT22;9172;49.948;9.208;2023-08-12T12:17:48;21.30;99.90
18091;DHT22;9172;49.948;9.208;2023-08-12T12:20:17;21.30;99.90
18091;DHT22;9172;49.948;9.208;2023-08-12T12:22:48;21.30;99.90
18091;DHT22;9172;49.948;9.208;2023-08-12T12:25:18;21.20;99.90
18091;DHT22;9172;49.948;9.208;2023-08-12T12:27:47;21.10;99.90
18091;DHT22;9172;49.948;9.208;2023-08-12T12:30:17;21.00;99.90
18091;DHT22;9172;49.948;9.208;2023-08-12T12:32:46;20.90;99.90
18091;DHT22;9172;49.948;9.208;2023-08-12T12:35:16;20.90;99.90
18091;DHT22;9172;49.948;9.208;2023-08-12T12:37:45;20.80;99.90
18091;DHT22;9172;49.948;9.208;2023-08-12T12:40:15;20.80;99.90
18091;DHT22;9172;49.948;9.208;2023-08-12T12:42:45;20.70;99.90
18091;DHT22;9172;49.948;9.208;2023-08-12T12:45:13;20.70;99.90
18091;DHT22;9172;49.948;9.208;2023-08-12T12:47:43;20.60;99.90
18091;DHT22;9172;49.948;9.208;2023-08-12T12:50:13;20.60;99.90
18091;DHT22;9172;49.948;9.208;2023-08-12T12:52:41;20.60;99.90
18091;DHT22;9172;49.948;9.208;2023-08-12T12:55:10;20.60;99.90
18091;DHT22;9172;49.948;9.208;2023-08-12T12:57:39;20.60;99.90
18091;DHT22;9172;49.948;9.208;2023-08-12T13:00:11;20.60;99.90
18091;DHT22;9172;49.948;9.208;2023-08-12T13:02:41;20.60;99.90
18091;DHT22;9172;49.948;9.208;2023-08-12T13:05:10;20.50;99.90
18091;DHT22;9172;49.948;9.208;2023-08-12T13:07:40;20.60;99.90
18091;DHT22;9172;49.948;9.208;2023-08-12T13:10:09;20.60;99.90
18091;DHT22;9172;49.948;9.208;2023-08-12T13:12:38;20.70;99.90
18091;DHT22;9172;49.948;9.208;2023-08-12T13:15:08;20.70;99.90
18091;DHT22;9172;49.948;9.208;2023-08-12T13:17:36;20.70;99.90
18091;DHT22;9172;49.948;9.208;2023-08-12T13:20:07;20.80;99.90
18091;DHT22;9172;49.948;9.208;2023-08-12T13:22:37;20.80;99.90
18091;DHT22;9172;49.948;9.208;2023-08-12T13:25:06;20.90;99.90
18091;DHT22;9172;49.948;9.208;2023-08-12T13:27:35;21.00;99.90
18091;DHT22;9172;49.948;9.208;2023-08-12T13:30:07;21.10;99.90
18091;DHT22;9172;49.948;9.208;2023-08-12T13:32:36;21.30;99.90
18091;DHT22;9172;49.948;9.208;2023-08-12T13:35:06;21.40;99.90
18091;DHT22;9172;49.948;9.208;2023-08-12T13:37:36;21.40;99.90
18091;DHT22;9172;49.948;9.208;2023-08-12T13:40:07;21.40;99.90
18091;DHT22;9172;49.948;9.208;2023-08-12T13:42:36;21.50;99.90
18091;DHT22;9172;49.948;9.208;2023-08-12T13:45:07;21.70;99.90
18091;DHT22;9172;49.948;9.208;2023-08-12T13:47:35;21.80;99.90
18091;DHT22;9172;49.948;9.208;2023-08-12T13:50:05;21.90;99.90
18091;DHT22;9172;49.948;9.208;2023-08-12T13:52:34;22.00;99.90
18091;DHT22;9172;49.948;9.208;2023-08-12T13:55:03;22.10;99.90
18091;DHT22;9172;49.948;9.208;2023-08-12T13:57:32;22.10;99.90
18091;DHT22;9172;49.948;9.208;2023-08-12T14:00:01;22.20;99.90
18091;DHT22;9172;49.948;9.208;2023-08-12T14:02:32;22.20;99.90
18091;DHT22;9172;49.948;9.208;2023-08-12T14:05:02;22.30;99.90
18091;DHT22;9172;49.948;9.208;2023-08-12T14:07:31;22.40;99.90
18091;DHT22;9172;49.948;9.208;2023-08-12T14:10:00;22.40;99.90
18091;DHT22;9172;49.948;9.208;2023-08-12T14:12:30;22.50;99.90
18091;DHT22;9172;49.948;9.208;2023-08-12T14:14:59;22.50;99.90
18091;DHT22;9172;49.948;9.208;2023-08-12T14:17:28;22.50;99.90
18091;DHT22;9172;49.948;9.208;2023-08-12T14:19:57;22.50;99.90
18091;DHT22;9172;49.948;9.208;2023-08-12T14:22:26;22.50;99.90
18091;DHT22;9172;49.948;9.208;2023-08-12T14:24:57;22.40;99.90
18091;DHT22;9172;49.948;9.208;2023-08-12T14:27:27;22.40;99.90
18091;DHT22;9172;49.948;9.208;2023-08-12T14:29:56;22.40;99.90
18091;DHT22;9172;49.948;9.208;2023-08-12T14:32:26;22.40;99.90
18091;DHT22;9172;49.948;9.208;2023-08-12T14:34:54;22.50;99.90
18091;DHT22;9172;49.948;9.208;2023-08-12T14:37:25;22.50;99.90
18091;DHT22;9172;49.948;9.208;2023-08-12T14:39:55;22.50;99.90
18091;DHT22;9172;49.948;9.208;2023-08-12T14:42:23;22.50;99.90
18091;DHT22;9172;49.948;9.208;2023-08-12T14:44:54;22.40;99.90
18091;DHT22;9172;49.948;9.208;2023-08-12T14:47:24;22.40;99.90
18091;DHT22;9172;49.948;9.208;2023-08-12T14:49:53;22.50;99.90
18091;DHT22;9172;49.948;9.208;2023-08-12T14:52:21;22.50;99.90
18091;DHT22;9172;49.948;9.208;2023-08-12T14:54:50;22.60;99.90
18091;DHT22;9172;49.948;9.208;2023-08-12T14:57:19;22.70;99.90
18091;DHT22;9172;49.948;9.208;2023-08-12T14:59:48;22.70;99.90
18091;DHT22;9172;49.948;9.208;2023-08-12T15:02:19;22.80;99.90
18091;DHT22;9172;49.948;9.208;2023-08-12T15:04:48;22.80;99.90
18091;DHT22;9172;49.948;9.208;2023-08-12T15:07:18;22.90;99.90
18091;DHT22;9172;49.948;9.208;2023-08-12T15:09:50;22.90;99.90
18091;DHT22;9172;49.948;9.208;2023-08-12T15:12:20;23.00;99.90
18091;DHT22;9172;49.948;9.208;2023-08-12T15:14:49;23.00;99.90
18091;DHT22;9172;49.948;9.208;2023-08-12T15:17:18;23.10;99.90
18091;DHT22;9172;49.948;9.208;2023-08-12T15:19:47;23.10;99.90
18091;DHT22;9172;49.948;9.208;2023-08-12T15:22:17;23.10;99.90
18091;DHT22;9172;49.948;9.208;2023-08-12T15:24:46;23.10;99.90
18091;DHT22;9172;49.948;9.208;2023-08-12T15:27:15;23.10;99.90
18091;DHT22;9172;49.948;9.208;2023-08-12T15:29:43;23.00;99.90
18091;DHT22;9172;49.948;9.208;2023-08-12T15:32:12;23.00;99.90
18091;DHT22;9172;49.948;9.208;2023-08-12T15:34:40;22.90;99.90
18091;DHT22;9172;49.948;9.208;2023-08-12T15:37:09;22.90;99.90
18091;DHT22;9172;49.948;9.208;2023-08-12T15:39:38;23.00;99.90
18091;DHT22;9172;49.948;9.208;2023-08-12T15:42:08;23.00;99.90
18091;DHT22;9172;49.948;9.208;2023-08-12T15:44:37;23.00;99.90
18091;DHT22;9172;49.948;9.208;2023-08-12T15:47:06;23.00;99.90
18091;DHT22;9172;49.948;9.208;2023-08-12T15:49:36;23.00;99.90
18091;DHT22;9172;49.948;9.208;2023-08-12T15:52:05;23.00;99.90
18091;DHT22;9172;49.948;9.208;2023-08-12T15:54:33;23.00;99.90
18091;DHT22;9172;49.948;9.208;2023-08-12T15:57:03;23.00;99.90
18091;DHT22;9172;49.948;9.208;2023-08-12T15:59:31;23.00;99.90
18091;DHT22;9172;49.948;9.208;2023-08-12T16:02:00;23.00;99.90